sensor_id;sensor_type;location;lat;lon;timestamp;P1;durP1;ratioP1;P2;durP2;ratioP2
59998;SDS011;45859;51.378;6.736;2023-05-10T00:01:45;31.17;;;18.40;;
59998;SDS011;45859;51.378;6.736;2023-05-10T00:04:11;30.57;;;18.40;;
59998;SDS011;45859;51.378;6.736;2023-05-10T00:06:37;31.73;;;19.83;;
59998;SDS011;45859;51.378;6.736;2023-05-10T00:09:02;30.60;;;18.23;;
59998;SDS011;45859;51.378;6.736;2023-05-10T00:11:28;33.90;;;20.10;;
59998;SDS011;45859;51.378;6.736;2023-05-10T00:13:54;32.70;;;19.03;;
59998;SDS011;45859;51.378;6.736;2023-05-10T00:16:20;35.80;;;21.73;;
59998;SDS011;45859;51.378;6.736;2023-05-10T00:18:45;33.70;;;20.97;;
59998;SDS011;45859;51.378;6.736;2023-05-10T00:21:11;35.07;;;20.93;;
59998;SDS011;45859;51.378;6.736;2023-05-10T00:23:37;35.97;;;21.57;;
59998;SDS011;45859;51.378;6.736;2023-05-10T00:26:03;37.73;;;22.03;;
59998;SDS011;45859;51.378;6.736;2023-05-10T00:28:29;36.13;;;21.97;;
59998;SDS011;45859;51.378;6.736;2023-05-10T00:30:54;37.80;;;22.13;;
59998;SDS011;45859;51.378;6.736;2023-05-10T00:33:20;35.07;;;22.33;;
59998;SDS011;45859;51.378;6.736;2023-05-10T00:35:46;40.57;;;23.93;;
59998;SDS011;45859;51.378;6.736;2023-05-10T00:38:12;38.20;;;22.73;;
59998;SDS011;45859;51.378;6.736;2023-05-10T00:40:37;39.37;;;23.27;;
59998;SDS011;45859;51.378;6.736;2023-05-10T00:43:03;40.77;;;22.47;;
59998;SDS011;45859;51.378;6.736;2023-05-10T00:45:38;40.07;;;23.67;;
59998;SDS011;45859;51.378;6.736;2023-05-10T00:48:05;44.87;;;24.33;;
59998;SDS011;45859;51.378;6.736;2023-05-10T00:50:31;46.20;;;25.00;;
59998;SDS011;45859;51.378;6.736;2023-05-10T00:52:58;44.67;;;24.43;;
59998;SDS011;45859;51.378;6.736;2023-05-10T00:55:25;46.07;;;26.40;;
59998;SDS011;45859;51.378;6.736;2023-05-10T00:57:51;48.20;;;26.47;;
59998;SDS011;45859;51.378;6.736;2023-05-10T01:00:18;49.50;;;27.17;;
59998;SDS011;45859;51.378;6.736;2023-05-10T01:02:45;47.33;;;25.97;;
59998;SDS011;45859;51.378;6.736;2023-05-10T01:05:11;54.93;;;27.03;;
59998;SDS011;45859;51.378;6.736;2023-05-10T01:07:37;52.60;;;26.93;;
59998;SDS011;45859;51.378;6.736;2023-05-10T01:10:03;52.80;;;26.53;;
59998;SDS011;45859;51.378;6.736;2023-05-10T01:12:30;53.97;;;27.40;;
59998;SDS011;45859;51.378;6.736;2023-05-10T01:14:55;58.10;;;28.83;;
59998;SDS011;45859;51.378;6.736;2023-05-10T01:17:22;50.30;;;27.50;;
59998;SDS011;45859;51.378;6.736;2023-05-10T01:19:48;52.60;;;27.83;;
59998;SDS011;45859;51.378;6.736;2023-05-10T01:28:00;42.00;;;24.40;;
59998;SDS011;45859;51.378;6.736;2023-05-10T01:33:21;46.63;;;24.13;;
59998;SDS011;45859;51.378;6.736;2023-05-10T01:38:49;48.60;;;25.63;;
59998;SDS011;45859;51.378;6.736;2023-05-10T01:41:18;50.50;;;26.10;;
59998;SDS011;45859;51.378;6.736;2023-05-10T01:43:55;55.93;;;27.50;;
59998;SDS011;45859;51.378;6.736;2023-05-10T01:46:31;52.50;;;27.37;;
59998;SDS011;45859;51.378;6.736;2023-05-10T01:49:01;53.03;;;27.93;;
59998;SDS011;45859;51.378;6.736;2023-05-10T01:51:35;54.17;;;28.97;;
59998;SDS011;45859;51.378;6.736;2023-05-10T01:54:11;65.47;;;30.77;;
59998;SDS011;45859;51.378;6.736;2023-05-10T01:56:39;60.63;;;29.93;;
59998;SDS011;45859;51.378;6.736;2023-05-10T01:59:07;50.67;;;27.63;;
59998;SDS011;45859;51.378;6.736;2023-05-10T02:01:37;44.97;;;24.80;;
59998;SDS011;45859;51.378;6.736;2023-05-10T02:04:04;46.03;;;24.87;;
59998;SDS011;45859;51.378;6.736;2023-05-10T02:06:31;46.10;;;23.50;;
59998;SDS011;45859;51.378;6.736;2023-05-10T02:08:58;40.47;;;24.10;;
59998;SDS011;45859;51.378;6.736;2023-05-10T02:11:26;47.87;;;25.27;;
59998;SDS011;45859;51.378;6.736;2023-05-10T02:13:53;46.17;;;23.33;;
59998;SDS011;45859;51.378;6.736;2023-05-10T02:16:21;45.13;;;24.53;;
59998;SDS011;45859;51.378;6.736;2023-05-10T02:18:50;44.27;;;24.17;;
59998;SDS011;45859;51.378;6.736;2023-05-10T02:21:17;43.67;;;23.17;;
59998;SDS011;45859;51.378;6.736;2023-05-10T02:23:45;47.80;;;24.47;;
59998;SDS011;45859;51.378;6.736;2023-05-10T02:26:13;46.73;;;23.90;;
59998;SDS011;45859;51.378;6.736;2023-05-10T02:28:40;46.97;;;24.27;;
59998;SDS011;45859;51.378;6.736;2023-05-10T02:31:07;48.60;;;23.73;;
59998;SDS011;45859;51.378;6.736;2023-05-10T02:33:35;47.50;;;23.93;;
59998;SDS011;45859;51.378;6.736;2023-05-10T02:36:04;47.30;;;22.87;;
59998;SDS011;45859;51.378;6.736;2023-05-10T02:38:31;45.63;;;23.47;;
59998;SDS011;45859;51.378;6.736;2023-05-10T02:40:59;46.27;;;23.17;;
59998;SDS011;45859;51.378;6.736;2023-05-10T02:43:26;39.87;;;21.87;;
59998;SDS011;45859;51.378;6.736;2023-05-10T02:45:55;36.00;;;21.27;;
59998;SDS011;45859;51.378;6.736;2023-05-10T02:48:20;37.20;;;21.27;;
59998;SDS011;45859;51.378;6.736;2023-05-10T02:50:46;34.67;;;20.90;;
59998;SDS011;45859;51.378;6.736;2023-05-10T02:53:18;34.55;;;20.10;;
59998;SDS011;45859;51.378;6.736;2023-05-10T02:55:49;32.23;;;19.60;;
59998;SDS011;45859;51.378;6.736;2023-05-10T02:58:17;30.83;;;18.40;;
59998;SDS011;45859;51.378;6.736;2023-05-10T03:00:46;26.03;;;17.63;;
59998;SDS011;45859;51.378;6.736;2023-05-10T03:03:11;27.53;;;17.50;;
59998;SDS011;45859;51.378;6.736;2023-05-10T03:05:37;34.53;;;19.57;;
59998;SDS011;45859;51.378;6.736;2023-05-10T03:08:03;34.83;;;21.00;;
59998;SDS011;45859;51.378;6.736;2023-05-10T03:10:29;39.20;;;22.80;;
59998;SDS011;45859;51.378;6.736;2023-05-10T03:16:22;43.38;;;24.55;;
59998;SDS011;45859;51.378;6.736;2023-05-10T03:21:20;39.00;;;21.83;;
59998;SDS011;45859;51.378;6.736;2023-05-10T03:23:51;45.10;;;25.13;;
59998;SDS011;45859;51.378;6.736;2023-05-10T03:26:30;49.15;;;27.50;;
59998;SDS011;45859;51.378;6.736;2023-05-10T03:28:57;50.73;;;26.87;;
59998;SDS011;45859;51.378;6.736;2023-05-10T03:31:24;53.27;;;28.23;;
59998;SDS011;45859;51.378;6.736;2023-05-10T03:33:51;55.13;;;29.97;;
59998;SDS011;45859;51.378;6.736;2023-05-10T03:36:17;58.53;;;30.43;;
59998;SDS011;45859;51.378;6.736;2023-05-10T03:38:43;62.23;;;30.90;;
59998;SDS011;45859;51.378;6.736;2023-05-10T03:41:09;61.07;;;32.00;;
59998;SDS011;45859;51.378;6.736;2023-05-10T03:43:34;65.23;;;33.13;;
59998;SDS011;45859;51.378;6.736;2023-05-10T03:46:03;64.47;;;32.83;;
59998;SDS011;45859;51.378;6.736;2023-05-10T03:48:29;60.73;;;31.03;;
59998;SDS011;45859;51.378;6.736;2023-05-10T03:50:56;57.97;;;29.73;;
59998;SDS011;45859;51.378;6.736;2023-05-10T03:53:22;52.63;;;29.73;;
59998;SDS011;45859;51.378;6.736;2023-05-10T03:55:48;54.67;;;30.03;;
59998;SDS011;45859;51.378;6.736;2023-05-10T03:58:13;55.67;;;29.47;;
59998;SDS011;45859;51.378;6.736;2023-05-10T04:00:39;53.30;;;29.53;;
59998;SDS011;45859;51.378;6.736;2023-05-10T04:03:11;54.50;;;30.30;;
59998;SDS011;45859;51.378;6.736;2023-05-10T04:05:37;51.60;;;29.13;;
59998;SDS011;45859;51.378;6.736;2023-05-10T04:08:02;59.27;;;31.27;;
59998;SDS011;45859;51.378;6.736;2023-05-10T04:10:28;55.60;;;30.63;;
59998;SDS011;45859;51.378;6.736;2023-05-10T04:12:54;59.97;;;30.43;;
59998;SDS011;45859;51.378;6.736;2023-05-10T04:15:20;56.13;;;31.33;;
59998;SDS011;45859;51.378;6.736;2023-05-10T04:17:46;58.77;;;32.17;;
59998;SDS011;45859;51.378;6.736;2023-05-10T04:20:12;58.07;;;32.30;;
59998;SDS011;45859;51.378;6.736;2023-05-10T04:22:38;50.47;;;28.53;;
59998;SDS011;45859;51.378;6.736;2023-05-10T04:25:03;54.10;;;28.67;;
59998;SDS011;45859;51.378;6.736;2023-05-10T04:27:30;55.30;;;30.23;;
59998;SDS011;45859;51.378;6.736;2023-05-10T04:29:56;57.00;;;31.23;;
59998;SDS011;45859;51.378;6.736;2023-05-10T04:32:22;61.70;;;32.37;;
59998;SDS011;45859;51.378;6.736;2023-05-10T04:34:47;59.93;;;31.77;;
59998;SDS011;45859;51.378;6.736;2023-05-10T04:37:13;55.10;;;30.43;;
59998;SDS011;45859;51.378;6.736;2023-05-10T04:39:38;54.50;;;31.07;;
59998;SDS011;45859;51.378;6.736;2023-05-10T04:42:04;58.57;;;32.40;;
59998;SDS011;45859;51.378;6.736;2023-05-10T04:44:30;61.00;;;33.00;;
59998;SDS011;45859;51.378;6.736;2023-05-10T04:46:57;63.17;;;32.63;;
59998;SDS011;45859;51.378;6.736;2023-05-10T04:49:22;60.77;;;33.80;;
59998;SDS011;45859;51.378;6.736;2023-05-10T04:51:48;56.07;;;31.97;;
59998;SDS011;45859;51.378;6.736;2023-05-10T04:54:13;61.73;;;34.50;;
59998;SDS011;45859;51.378;6.736;2023-05-10T04:56:39;64.90;;;34.20;;
59998;SDS011;45859;51.378;6.736;2023-05-10T04:59:05;61.90;;;33.00;;
59998;SDS011;45859;51.378;6.736;2023-05-10T05:01:31;52.13;;;30.23;;
59998;SDS011;45859;51.378;6.736;2023-05-10T05:03:57;48.03;;;28.97;;
59998;SDS011;45859;51.378;6.736;2023-05-10T05:06:23;51.60;;;30.60;;
59998;SDS011;45859;51.378;6.736;2023-05-10T05:08:50;52.93;;;30.77;;
59998;SDS011;45859;51.378;6.736;2023-05-10T05:11:16;51.47;;;30.57;;
59998;SDS011;45859;51.378;6.736;2023-05-10T05:13:42;49.43;;;29.37;;
59998;SDS011;45859;51.378;6.736;2023-05-10T05:16:08;49.37;;;29.70;;
59998;SDS011;45859;51.378;6.736;2023-05-10T05:18:34;50.70;;;30.83;;
59998;SDS011;45859;51.378;6.736;2023-05-10T05:20:59;52.20;;;31.17;;
59998;SDS011;45859;51.378;6.736;2023-05-10T05:23:26;48.20;;;29.43;;
59998;SDS011;45859;51.378;6.736;2023-05-10T05:25:52;43.23;;;28.10;;
59998;SDS011;45859;51.378;6.736;2023-05-10T05:28:19;46.43;;;27.47;;
59998;SDS011;45859;51.378;6.736;2023-05-10T05:30:45;46.80;;;28.13;;
59998;SDS011;45859;51.378;6.736;2023-05-10T05:33:11;53.07;;;32.50;;
59998;SDS011;45859;51.378;6.736;2023-05-10T05:35:38;50.80;;;30.87;;
59998;SDS011;45859;51.378;6.736;2023-05-10T05:38:03;47.73;;;30.87;;
59998;SDS011;45859;51.378;6.736;2023-05-10T05:40:29;55.13;;;32.57;;
59998;SDS011;45859;51.378;6.736;2023-05-10T05:42:55;52.37;;;32.37;;
59998;SDS011;45859;51.378;6.736;2023-05-10T05:45:20;52.33;;;30.93;;
59998;SDS011;45859;51.378;6.736;2023-05-10T05:47:46;49.77;;;31.83;;
59998;SDS011;45859;51.378;6.736;2023-05-10T05:50:12;55.87;;;32.53;;
59998;SDS011;45859;51.378;6.736;2023-05-10T05:52:38;53.07;;;31.83;;
59998;SDS011;45859;51.378;6.736;2023-05-10T05:55:04;53.37;;;31.70;;
59998;SDS011;45859;51.378;6.736;2023-05-10T05:57:30;55.77;;;32.37;;
59998;SDS011;45859;51.378;6.736;2023-05-10T05:59:55;59.03;;;34.10;;
59998;SDS011;45859;51.378;6.736;2023-05-10T06:02:21;53.43;;;31.43;;
59998;SDS011;45859;51.378;6.736;2023-05-10T06:04:47;59.47;;;34.27;;
59998;SDS011;45859;51.378;6.736;2023-05-10T06:07:12;58.63;;;33.87;;
59998;SDS011;45859;51.378;6.736;2023-05-10T06:09:38;62.60;;;34.73;;
59998;SDS011;45859;51.378;6.736;2023-05-10T06:12:04;55.30;;;32.47;;
59998;SDS011;45859;51.378;6.736;2023-05-10T06:14:30;66.37;;;35.60;;
59998;SDS011;45859;51.378;6.736;2023-05-10T06:16:55;59.07;;;34.03;;
59998;SDS011;45859;51.378;6.736;2023-05-10T06:19:21;63.43;;;34.17;;
59998;SDS011;45859;51.378;6.736;2023-05-10T06:21:47;63.67;;;34.70;;
59998;SDS011;45859;51.378;6.736;2023-05-10T06:24:12;66.50;;;36.17;;
59998;SDS011;45859;51.378;6.736;2023-05-10T06:26:41;63.37;;;34.90;;
59998;SDS011;45859;51.378;6.736;2023-05-10T06:29:07;57.80;;;33.00;;
59998;SDS011;45859;51.378;6.736;2023-05-10T06:31:32;60.87;;;34.33;;
59998;SDS011;45859;51.378;6.736;2023-05-10T06:33:58;59.97;;;32.30;;
59998;SDS011;45859;51.378;6.736;2023-05-10T06:36:24;59.80;;;32.27;;
59998;SDS011;45859;51.378;6.736;2023-05-10T06:38:51;55.73;;;30.43;;
59998;SDS011;45859;51.378;6.736;2023-05-10T06:41:17;60.33;;;32.47;;
59998;SDS011;45859;51.378;6.736;2023-05-10T06:43:42;51.73;;;30.53;;
59998;SDS011;45859;51.378;6.736;2023-05-10T06:46:08;51.40;;;30.20;;
59998;SDS011;45859;51.378;6.736;2023-05-10T06:48:34;52.80;;;30.60;;
59998;SDS011;45859;51.378;6.736;2023-05-10T06:51:00;51.73;;;30.93;;
59998;SDS011;45859;51.378;6.736;2023-05-10T06:53:25;53.20;;;33.27;;
59998;SDS011;45859;51.378;6.736;2023-05-10T06:55:51;55.00;;;33.17;;
59998;SDS011;45859;51.378;6.736;2023-05-10T06:58:17;50.07;;;31.47;;
59998;SDS011;45859;51.378;6.736;2023-05-10T07:00:42;52.43;;;31.20;;
59998;SDS011;45859;51.378;6.736;2023-05-10T07:03:10;53.33;;;30.37;;
59998;SDS011;45859;51.378;6.736;2023-05-10T07:05:35;48.53;;;30.17;;
59998;SDS011;45859;51.378;6.736;2023-05-10T07:08:01;59.87;;;31.37;;
59998;SDS011;45859;51.378;6.736;2023-05-10T07:10:27;49.23;;;30.67;;
59998;SDS011;45859;51.378;6.736;2023-05-10T07:12:53;50.70;;;28.87;;
59998;SDS011;45859;51.378;6.736;2023-05-10T07:15:19;49.40;;;28.20;;
59998;SDS011;45859;51.378;6.736;2023-05-10T07:17:44;51.27;;;28.73;;
59998;SDS011;45859;51.378;6.736;2023-05-10T07:20:10;48.23;;;29.80;;
59998;SDS011;45859;51.378;6.736;2023-05-10T07:22:36;43.90;;;26.90;;
59998;SDS011;45859;51.378;6.736;2023-05-10T07:25:02;49.03;;;28.30;;
59998;SDS011;45859;51.378;6.736;2023-05-10T07:27:28;50.43;;;28.80;;
59998;SDS011;45859;51.378;6.736;2023-05-10T07:29:54;55.87;;;29.97;;
59998;SDS011;45859;51.378;6.736;2023-05-10T07:32:20;52.93;;;29.77;;
59998;SDS011;45859;51.378;6.736;2023-05-10T07:34:46;59.63;;;31.33;;
59998;SDS011;45859;51.378;6.736;2023-05-10T07:37:12;52.50;;;28.73;;
59998;SDS011;45859;51.378;6.736;2023-05-10T07:39:37;49.03;;;27.83;;
59998;SDS011;45859;51.378;6.736;2023-05-10T07:42:03;47.53;;;26.23;;
59998;SDS011;45859;51.378;6.736;2023-05-10T07:44:29;45.93;;;25.73;;
59998;SDS011;45859;51.378;6.736;2023-05-10T07:46:55;43.60;;;24.73;;
59998;SDS011;45859;51.378;6.736;2023-05-10T07:49:20;42.30;;;25.63;;
59998;SDS011;45859;51.378;6.736;2023-05-10T07:51:46;45.07;;;25.90;;
59998;SDS011;45859;51.378;6.736;2023-05-10T07:54:13;40.20;;;24.80;;
59998;SDS011;45859;51.378;6.736;2023-05-10T07:56:39;42.57;;;25.03;;
59998;SDS011;45859;51.378;6.736;2023-05-10T07:59:09;41.10;;;23.70;;
59998;SDS011;45859;51.378;6.736;2023-05-10T08:01:35;41.93;;;24.63;;
59998;SDS011;45859;51.378;6.736;2023-05-10T08:04:01;41.10;;;25.43;;
59998;SDS011;45859;51.378;6.736;2023-05-10T08:06:27;41.07;;;25.00;;
59998;SDS011;45859;51.378;6.736;2023-05-10T08:08:55;42.80;;;25.33;;
59998;SDS011;45859;51.378;6.736;2023-05-10T08:11:21;40.67;;;25.30;;
59998;SDS011;45859;51.378;6.736;2023-05-10T08:13:47;42.67;;;25.77;;
59998;SDS011;45859;51.378;6.736;2023-05-10T08:16:14;44.05;;;25.80;;
59998;SDS011;45859;51.378;6.736;2023-05-10T08:18:42;40.60;;;25.90;;
59998;SDS011;45859;51.378;6.736;2023-05-10T08:21:08;40.67;;;24.60;;
59998;SDS011;45859;51.378;6.736;2023-05-10T08:23:36;45.33;;;25.63;;
59998;SDS011;45859;51.378;6.736;2023-05-10T08:26:02;47.15;;;26.48;;
59998;SDS011;45859;51.378;6.736;2023-05-10T08:28:28;37.50;;;22.88;;
59998;SDS011;45859;51.378;6.736;2023-05-10T08:30:53;37.83;;;23.30;;
59998;SDS011;45859;51.378;6.736;2023-05-10T08:33:19;37.80;;;24.67;;
59998;SDS011;45859;51.378;6.736;2023-05-10T08:35:45;35.33;;;22.98;;
59998;SDS011;45859;51.378;6.736;2023-05-10T08:38:11;33.40;;;22.80;;
59998;SDS011;45859;51.378;6.736;2023-05-10T08:40:38;35.08;;;23.08;;
59998;SDS011;45859;51.378;6.736;2023-05-10T08:43:08;35.43;;;22.47;;
59998;SDS011;45859;51.378;6.736;2023-05-10T08:45:40;35.80;;;22.77;;
59998;SDS011;45859;51.378;6.736;2023-05-10T08:48:07;36.10;;;23.33;;
59998;SDS011;45859;51.378;6.736;2023-05-10T08:50:38;35.20;;;22.27;;
59998;SDS011;45859;51.378;6.736;2023-05-10T08:53:12;35.77;;;22.20;;
59998;SDS011;45859;51.378;6.736;2023-05-10T08:55:39;29.73;;;20.23;;
59998;SDS011;45859;51.378;6.736;2023-05-10T08:58:07;30.75;;;19.92;;
59998;SDS011;45859;51.378;6.736;2023-05-10T09:00:34;29.73;;;19.35;;
59998;SDS011;45859;51.378;6.736;2023-05-10T09:03:00;28.33;;;19.50;;
59998;SDS011;45859;51.378;6.736;2023-05-10T09:05:27;29.35;;;18.60;;
59998;SDS011;45859;51.378;6.736;2023-05-10T09:07:53;25.93;;;19.83;;
59998;SDS011;45859;51.378;6.736;2023-05-10T09:10:20;29.10;;;21.23;;
59998;SDS011;45859;51.378;6.736;2023-05-10T09:12:46;26.73;;;19.70;;
59998;SDS011;45859;51.378;6.736;2023-05-10T09:15:16;26.50;;;19.73;;
59998;SDS011;45859;51.378;6.736;2023-05-10T09:20:09;27.27;;;19.17;;
59998;SDS011;45859;51.378;6.736;2023-05-10T09:22:35;24.38;;;18.23;;
59998;SDS011;45859;51.378;6.736;2023-05-10T09:25:06;28.85;;;18.75;;
59998;SDS011;45859;51.378;6.736;2023-05-10T09:27:36;30.70;;;19.42;;
59998;SDS011;45859;51.378;6.736;2023-05-10T09:30:03;23.00;;;17.00;;
59998;SDS011;45859;51.378;6.736;2023-05-10T09:32:37;21.95;;;16.50;;
59998;SDS011;45859;51.378;6.736;2023-05-10T09:35:16;21.75;;;15.77;;
59998;SDS011;45859;51.378;6.736;2023-05-10T09:37:45;20.93;;;15.60;;
59998;SDS011;45859;51.378;6.736;2023-05-10T09:40:18;19.48;;;13.55;;
59998;SDS011;45859;51.378;6.736;2023-05-10T09:45:24;20.50;;;15.15;;
59998;SDS011;45859;51.378;6.736;2023-05-10T09:47:54;23.10;;;16.65;;
59998;SDS011;45859;51.378;6.736;2023-05-10T09:50:21;23.60;;;16.67;;
59998;SDS011;45859;51.378;6.736;2023-05-10T09:55:13;24.00;;;16.42;;
59998;SDS011;45859;51.378;6.736;2023-05-10T09:57:39;22.35;;;17.08;;
59998;SDS011;45859;51.378;6.736;2023-05-10T10:00:06;23.25;;;15.63;;
59998;SDS011;45859;51.378;6.736;2023-05-10T10:02:32;21.50;;;16.10;;
59998;SDS011;45859;51.378;6.736;2023-05-10T10:05:00;24.52;;;16.40;;
59998;SDS011;45859;51.378;6.736;2023-05-10T10:07:27;20.17;;;16.10;;
59998;SDS011;45859;51.378;6.736;2023-05-10T10:09:53;25.50;;;17.48;;
59998;SDS011;45859;51.378;6.736;2023-05-10T10:12:19;22.05;;;16.10;;
59998;SDS011;45859;51.378;6.736;2023-05-10T10:14:48;23.75;;;18.55;;
59998;SDS011;45859;51.378;6.736;2023-05-10T10:17:15;24.23;;;16.58;;
59998;SDS011;45859;51.378;6.736;2023-05-10T10:19:41;23.55;;;16.52;;
59998;SDS011;45859;51.378;6.736;2023-05-10T10:22:07;21.80;;;16.30;;
59998;SDS011;45859;51.378;6.736;2023-05-10T10:24:35;20.38;;;15.75;;
59998;SDS011;45859;51.378;6.736;2023-05-10T10:27:08;22.75;;;15.68;;
59998;SDS011;45859;51.378;6.736;2023-05-10T10:29:59;20.70;;;15.93;;
59998;SDS011;45859;51.378;6.736;2023-05-10T10:35:02;22.50;;;16.85;;
59998;SDS011;45859;51.378;6.736;2023-05-10T10:37:45;21.63;;;15.98;;
59998;SDS011;45859;51.378;6.736;2023-05-10T10:40:25;22.25;;;16.73;;
59998;SDS011;45859;51.378;6.736;2023-05-10T10:42:57;21.85;;;15.65;;
59998;SDS011;45859;51.378;6.736;2023-05-10T10:45:24;19.80;;;15.45;;
59998;SDS011;45859;51.378;6.736;2023-05-10T10:48:21;21.20;;;15.50;;
59998;SDS011;45859;51.378;6.736;2023-05-10T10:50:55;22.90;;;16.20;;
59998;SDS011;45859;51.378;6.736;2023-05-10T10:53:22;20.73;;;15.65;;
59998;SDS011;45859;51.378;6.736;2023-05-10T10:55:51;18.52;;;15.07;;
59998;SDS011;45859;51.378;6.736;2023-05-10T10:58:31;20.00;;;14.40;;
59998;SDS011;45859;51.378;6.736;2023-05-10T11:01:17;20.67;;;15.03;;
59998;SDS011;45859;51.378;6.736;2023-05-10T11:06:31;18.17;;;14.60;;
59998;SDS011;45859;51.378;6.736;2023-05-10T11:08:57;21.57;;;14.27;;
59998;SDS011;45859;51.378;6.736;2023-05-10T11:11:23;19.37;;;14.23;;
59998;SDS011;45859;51.378;6.736;2023-05-10T11:13:49;17.63;;;13.77;;
59998;SDS011;45859;51.378;6.736;2023-05-10T11:16:15;19.95;;;13.32;;
59998;SDS011;45859;51.378;6.736;2023-05-10T11:19:02;16.15;;;12.70;;
59998;SDS011;45859;51.378;6.736;2023-05-10T11:21:48;15.82;;;12.88;;
59998;SDS011;45859;51.378;6.736;2023-05-10T11:24:17;16.35;;;11.98;;
59998;SDS011;45859;51.378;6.736;2023-05-10T11:26:52;15.10;;;11.90;;
59998;SDS011;45859;51.378;6.736;2023-05-10T11:29:18;16.77;;;12.60;;
59998;SDS011;45859;51.378;6.736;2023-05-10T11:31:45;15.15;;;12.98;;
59998;SDS011;45859;51.378;6.736;2023-05-10T11:34:13;13.48;;;12.15;;
59998;SDS011;45859;51.378;6.736;2023-05-10T11:36:52;14.20;;;11.93;;
59998;SDS011;45859;51.378;6.736;2023-05-10T11:39:20;18.25;;;13.10;;
59998;SDS011;45859;51.378;6.736;2023-05-10T11:41:49;16.58;;;12.60;;
59998;SDS011;45859;51.378;6.736;2023-05-10T11:44:15;15.50;;;11.82;;
59998;SDS011;45859;51.378;6.736;2023-05-10T11:46:44;13.95;;;11.32;;
59998;SDS011;45859;51.378;6.736;2023-05-10T11:49:10;15.90;;;11.32;;
59998;SDS011;45859;51.378;6.736;2023-05-10T11:51:36;15.35;;;10.48;;
59998;SDS011;45859;51.378;6.736;2023-05-10T11:54:06;12.80;;;9.65;;
59998;SDS011;45859;51.378;6.736;2023-05-10T11:56:39;12.82;;;9.88;;
59998;SDS011;45859;51.378;6.736;2023-05-10T11:59:05;9.93;;;8.63;;
59998;SDS011;45859;51.378;6.736;2023-05-10T12:01:32;11.27;;;8.93;;
59998;SDS011;45859;51.378;6.736;2023-05-10T12:03:59;9.77;;;8.30;;
59998;SDS011;45859;51.378;6.736;2023-05-10T12:06:27;9.63;;;7.93;;
59998;SDS011;45859;51.378;6.736;2023-05-10T12:08:54;8.63;;;7.72;;
59998;SDS011;45859;51.378;6.736;2023-05-10T12:11:20;11.15;;;9.00;;
59998;SDS011;45859;51.378;6.736;2023-05-10T12:13:50;10.18;;;9.05;;
59998;SDS011;45859;51.378;6.736;2023-05-10T12:16:17;11.63;;;9.23;;
59998;SDS011;45859;51.378;6.736;2023-05-10T12:18:43;10.85;;;9.60;;
59998;SDS011;45859;51.378;6.736;2023-05-10T12:21:12;12.55;;;9.27;;
59998;SDS011;45859;51.378;6.736;2023-05-10T12:23:40;12.77;;;10.90;;
59998;SDS011;45859;51.378;6.736;2023-05-10T12:26:08;12.52;;;9.13;;
59998;SDS011;45859;51.378;6.736;2023-05-10T12:28:35;10.63;;;9.20;;
59998;SDS011;45859;51.378;6.736;2023-05-10T12:31:02;15.32;;;10.27;;
59998;SDS011;45859;51.378;6.736;2023-05-10T12:33:35;12.57;;;11.23;;
59998;SDS011;45859;51.378;6.736;2023-05-10T12:36:07;12.60;;;10.05;;
59998;SDS011;45859;51.378;6.736;2023-05-10T12:38:48;10.95;;;9.60;;
59998;SDS011;45859;51.378;6.736;2023-05-10T12:41:17;9.63;;;8.40;;
59998;SDS011;45859;51.378;6.736;2023-05-10T12:43:43;9.30;;;8.47;;
59998;SDS011;45859;51.378;6.736;2023-05-10T12:46:16;10.05;;;9.10;;
59998;SDS011;45859;51.378;6.736;2023-05-10T12:48:44;9.52;;;8.43;;
59998;SDS011;45859;51.378;6.736;2023-05-10T12:51:11;10.90;;;9.05;;
59998;SDS011;45859;51.378;6.736;2023-05-10T12:53:41;9.05;;;7.93;;
59998;SDS011;45859;51.378;6.736;2023-05-10T12:56:06;9.93;;;8.68;;
59998;SDS011;45859;51.378;6.736;2023-05-10T12:58:32;12.88;;;8.57;;
59998;SDS011;45859;51.378;6.736;2023-05-10T13:00:59;9.50;;;8.13;;
59998;SDS011;45859;51.378;6.736;2023-05-10T13:03:25;9.75;;;7.63;;
59998;SDS011;45859;51.378;6.736;2023-05-10T13:05:50;10.63;;;7.32;;
59998;SDS011;45859;51.378;6.736;2023-05-10T13:08:16;10.00;;;8.45;;
59998;SDS011;45859;51.378;6.736;2023-05-10T13:10:42;11.00;;;9.48;;
59998;SDS011;45859;51.378;6.736;2023-05-10T13:13:08;10.93;;;9.27;;
59998;SDS011;45859;51.378;6.736;2023-05-10T13:15:33;10.68;;;9.50;;
59998;SDS011;45859;51.378;6.736;2023-05-10T13:17:59;14.93;;;11.95;;
59998;SDS011;45859;51.378;6.736;2023-05-10T13:20:25;12.38;;;10.43;;
59998;SDS011;45859;51.378;6.736;2023-05-10T13:22:52;14.88;;;12.07;;
59998;SDS011;45859;51.378;6.736;2023-05-10T13:25:17;13.30;;;10.77;;
59998;SDS011;45859;51.378;6.736;2023-05-10T13:27:43;14.65;;;12.55;;
59998;SDS011;45859;51.378;6.736;2023-05-10T13:30:09;10.55;;;9.27;;
59998;SDS011;45859;51.378;6.736;2023-05-10T13:32:36;10.85;;;8.73;;
59998;SDS011;45859;51.378;6.736;2023-05-10T13:35:02;10.02;;;8.63;;
59998;SDS011;45859;51.378;6.736;2023-05-10T13:37:28;10.18;;;9.13;;
59998;SDS011;45859;51.378;6.736;2023-05-10T13:39:54;10.65;;;9.65;;
59998;SDS011;45859;51.378;6.736;2023-05-10T13:42:21;10.98;;;9.57;;
59998;SDS011;45859;51.378;6.736;2023-05-10T13:44:48;9.68;;;8.68;;
59998;SDS011;45859;51.378;6.736;2023-05-10T13:47:14;11.43;;;10.18;;
59998;SDS011;45859;51.378;6.736;2023-05-10T13:49:39;10.23;;;9.25;;
59998;SDS011;45859;51.378;6.736;2023-05-10T13:52:05;10.65;;;9.45;;
59998;SDS011;45859;51.378;6.736;2023-05-10T13:54:32;12.02;;;9.95;;
59998;SDS011;45859;51.378;6.736;2023-05-10T13:56:58;10.73;;;9.63;;
59998;SDS011;45859;51.378;6.736;2023-05-10T13:59:24;10.00;;;9.00;;
59998;SDS011;45859;51.378;6.736;2023-05-10T14:01:50;10.32;;;9.23;;
59998;SDS011;45859;51.378;6.736;2023-05-10T14:04:16;11.32;;;9.43;;
59998;SDS011;45859;51.378;6.736;2023-05-10T14:06:42;11.10;;;8.43;;
59998;SDS011;45859;51.378;6.736;2023-05-10T14:09:07;12.68;;;10.90;;
59998;SDS011;45859;51.378;6.736;2023-05-10T14:11:33;11.32;;;8.98;;
59998;SDS011;45859;51.378;6.736;2023-05-10T14:13:59;11.90;;;10.65;;
59998;SDS011;45859;51.378;6.736;2023-05-10T14:16:25;12.07;;;10.60;;
59998;SDS011;45859;51.378;6.736;2023-05-10T14:18:51;15.80;;;13.50;;
59998;SDS011;45859;51.378;6.736;2023-05-10T14:21:16;15.85;;;14.13;;
59998;SDS011;45859;51.378;6.736;2023-05-10T14:23:42;17.02;;;14.05;;
59998;SDS011;45859;51.378;6.736;2023-05-10T14:26:08;16.33;;;13.07;;
59998;SDS011;45859;51.378;6.736;2023-05-10T14:28:33;16.45;;;13.13;;
59998;SDS011;45859;51.378;6.736;2023-05-10T14:30:59;16.40;;;13.20;;
59998;SDS011;45859;51.378;6.736;2023-05-10T14:33:25;17.48;;;15.38;;
59998;SDS011;45859;51.378;6.736;2023-05-10T14:35:51;19.33;;;14.63;;
59998;SDS011;45859;51.378;6.736;2023-05-10T14:38:17;17.27;;;14.27;;
59998;SDS011;45859;51.378;6.736;2023-05-10T14:40:43;17.52;;;14.10;;
59998;SDS011;45859;51.378;6.736;2023-05-10T14:43:08;16.90;;;15.10;;
59998;SDS011;45859;51.378;6.736;2023-05-10T14:45:34;21.10;;;16.17;;
59998;SDS011;45859;51.378;6.736;2023-05-10T14:48:00;18.38;;;15.38;;
59998;SDS011;45859;51.378;6.736;2023-05-10T14:50:29;18.80;;;14.23;;
59998;SDS011;45859;51.378;6.736;2023-05-10T14:52:55;16.65;;;14.30;;
59998;SDS011;45859;51.378;6.736;2023-05-10T14:55:21;15.23;;;13.63;;